Time;durP1;ratioP1;P1;durP2;ratioP2;P2;SDS_P1;SDS_P2;PMS_P1;PMS_P2;Temp;Humidity;BMP_temperature;BMP_pressure;BME280_temperature;BME280_humidity;BME280_pressure;Samples;Min_cycle;Max_cycle;Signal;HPM_P1;HPM_P2
2023/05/15 00:00:19;;;;;;;2.83;2.63;;;;;;;12.81;65.93;98449.16;4938482;28;40795;-80
2023/05/15 00:02:48;;;;;;;4.67;3.20;;;;;;;12.78;66.56;98444.94;4939145;28;41638;-79
2023/05/15 00:05:15;;;;;;;3.30;3.00;;;;;;;12.70;67.31;98428.75;4954727;28;43379;-79
2023/05/15 00:07:43;;;;;;;3.07;2.77;;;;;;;12.74;66.86;98446.13;4972948;28;39765;-78
2023/05/15 00:10:11;;;;;;;3.23;2.93;;;;;;;12.73;66.72;98439.16;4939082;28;40690;-78
2023/05/15 00:12:38;;;;;;;2.47;2.27;;;;;;;12.69;66.64;98444.81;4939138;28;42101;-80
2023/05/15 00:15:07;;;;;;;3.30;3.00;;;;;;;12.59;66.59;98432.25;4955204;28;43200;-79
2023/05/15 00:17:34;;;;;;;2.57;2.37;;;;;;;12.59;66.75;98444.69;4972227;28;40028;-78
2023/05/15 00:20:06;;;;;;;2.67;2.47;;;;;;;12.56;66.46;98448.41;4939072;28;41609;-78
2023/05/15 00:22:33;;;;;;;2.77;2.50;;;;;;;12.52;66.59;98452.25;4952500;28;43714;-79
2023/05/15 00:25:01;;;;;;;2.60;2.40;;;;;;;12.47;66.31;98449.13;4938713;28;41422;-79
2023/05/15 00:27:29;;;;;;;3.17;2.83;;;;;;;12.45;66.64;98443.09;4955099;28;41619;-78
2023/05/15 00:29:56;;;;;;;3.00;2.80;;;;;;;12.40;66.70;98437.28;4938718;28;41836;-77
2023/05/15 00:32:24;;;;;;;2.73;2.53;;;;;;;12.37;67.67;98440.16;4938820;28;41919;-79
2023/05/15 00:34:52;;;;;;;3.30;2.70;;;;;;;12.35;67.50;98438.59;4954251;28;42983;-79
2023/05/15 00:37:21;;;;;;;3.13;2.83;;;;;;;12.31;67.59;98440.63;4939513;28;38744;-79
2023/05/15 00:39:51;;;;;;;2.60;2.40;;;;;;;12.28;67.86;98438.22;4938439;28;40932;-78
2023/05/15 00:42:20;;;;;;;3.13;2.53;;;;;;;12.25;67.80;98438.44;4953635;28;43643;-80
2023/05/15 00:44:49;;;;;;;2.93;2.67;;;;;;;12.15;67.79;98432.13;4937656;28;41245;-78
2023/05/15 00:47:17;;;;;;;2.30;2.10;;;;;;;12.19;68.19;98438.91;4954064;28;40058;-78
2023/05/15 00:49:45;;;;;;;2.70;2.50;;;;;;;12.15;67.89;98437.44;4953694;28;41720;-77
2023/05/15 00:52:14;;;;;;;2.83;2.63;;;;;;;12.13;68.34;98434.06;4938251;28;43457;-80
2023/05/15 00:54:43;;;;;;;2.50;2.30;;;;;;;12.09;68.21;98429.97;4937621;28;42219;-79
2023/05/15 00:57:11;;;;;;;2.80;2.60;;;;;;;12.06;68.91;98427.53;4937957;28;39338;-80
2023/05/15 00:59:40;;;;;;;2.77;2.57;;;;;;;12.03;69.05;98428.59;4937551;28;40712;-78
2023/05/15 01:02:08;;;;;;;2.57;2.17;;;;;;;12.01;68.85;98429.66;4954194;28;43821;-78
2023/05/15 01:04:35;;;;;;;2.50;2.30;;;;;;;11.99;69.11;98431.63;4937547;28;41226;-77
2023/05/15 01:07:03;;;;;;;2.63;2.43;;;;;;;11.93;68.96;98429.41;4956180;28;39968;-77
2023/05/15 01:09:33;;;;;;;2.80;2.60;;;;;;;11.94;69.03;98434.59;4940888;28;40433;-76
2023/05/15 01:12:02;;;;;;;2.50;2.30;;;;;;;11.79;69.12;98403.91;4957234;28;42835;-77
2023/05/15 01:18:30;;;;;;;2.97;2.67;;;;;;;11.84;70.74;98423.84;4957201;28;39719;-77
2023/05/15 01:21:27;;;;;;;3.10;2.80;;;;;;;11.82;72.02;98415.13;4954095;28;41710;-78
2023/05/15 01:24:11;;;;;;;3.50;3.20;;;;;;;11.76;72.37;98412.06;4940814;28;43254;-78
2023/05/15 01:27:04;;;;;;;3.20;2.90;;;;;;;11.73;72.44;98405.19;4941125;28;42268;-78
2023/05/15 01:29:41;;;;;;;3.30;3.00;;;;;;;11.80;71.91;98417.06;4957069;28;40049;-78
2023/05/15 01:32:11;;;;;;;3.37;3.07;;;;;;;11.77;74.01;98417.28;4956822;28;41834;-77
2023/05/15 01:34:45;;;;;;;3.40;3.10;;;;;;;11.75;73.88;98413.88;4955398;28;42866;-78
2023/05/15 01:37:18;;;;;;;3.33;3.03;;;;;;;11.74;72.81;98414.84;4941879;28;43880;-77
2023/05/15 01:39:49;;;;;;;3.53;3.20;;;;;;;11.73;72.82;98423.75;4956250;28;39939;-77
2023/05/15 01:42:20;;;;;;;3.27;3.00;;;;;;;11.73;72.72;98415.78;4954943;28;41996;-77
2023/05/15 01:44:53;;;;;;;2.63;2.43;;;;;;;11.73;72.23;98423.75;4941645;28;41702;-77
2023/05/15 01:47:26;;;;;;;3.00;2.67;;;;;;;11.73;72.61;98423.75;4942163;28;42453;-78
2023/05/15 01:49:56;;;;;;;3.57;3.27;;;;;;;11.73;72.76;98423.75;4941146;28;38911;-77
2023/05/15 01:52:32;;;;;;;3.20;2.90;;;;;;;11.74;72.64;98428.09;4941411;28;41739;-77
2023/05/15 01:55:02;;;;;;;3.03;2.83;;;;;;;11.78;73.60;98424.28;4939962;28;42161;-77
2023/05/15 01:57:31;;;;;;;3.60;3.33;;;;;;;11.82;73.48;98425.75;4939933;28;42630;-78
2023/05/15 01:59:59;;;;;;;4.33;3.40;;;;;;;11.90;73.64;98421.66;4940110;28;38863;-77
2023/05/15 02:02:28;;;;;;;3.37;3.07;;;;;;;11.94;73.26;98423.13;4940020;28;42030;-77
2023/05/15 02:04:57;;;;;;;3.20;2.90;;;;;;;12.00;72.73;98427.97;4955982;28;43654;-77
2023/05/15 02:07:26;;;;;;;3.93;3.63;;;;;;;12.06;72.74;98427.53;4940091;28;41270;-78
2023/05/15 02:09:54;;;;;;;3.63;3.40;;;;;;;12.02;75.54;98396.88;4956215;28;41383;-77
2023/05/15 02:12:22;;;;;;;3.83;3.53;;;;;;;12.06;75.36;98395.69;4940351;28;40835;-77
2023/05/15 02:14:52;;;;;;;4.17;3.77;;;;;;;12.19;76.79;98407.06;4940062;28;44293;-78
2023/05/15 02:17:20;;;;;;;3.60;3.23;;;;;;;12.21;75.79;98413.94;4939173;28;42243;-76
2023/05/15 02:19:50;;;;;;;3.63;3.33;;;;;;;12.24;74.75;98420.81;4939835;28;39075;-77
2023/05/15 02:22:17;;;;;;;3.17;2.87;;;;;;;12.27;74.10;98414.44;4955975;28;40754;-78
2023/05/15 02:24:45;;;;;;;3.40;3.00;;;;;;;12.26;73.54;98418.88;4939405;28;41653;-79
2023/05/15 02:27:18;;;;;;;2.70;2.50;;;;;;;12.26;73.35;98413.56;4956002;28;42364;-78
2023/05/15 02:29:57;;;;;;;2.80;2.60;;;;;;;12.14;73.06;98401.25;4939575;28;40030;-78
2023/05/15 02:32:31;;;;;;;2.80;2.60;;;;;;;12.20;73.08;98419.38;4939561;28;41689;-78
2023/05/15 02:35:09;;;;;;;2.77;2.57;;;;;;;12.15;72.99;98418.84;4954928;28;43793;-77
2023/05/15 02:37:39;;;;;;;3.57;2.80;;;;;;;11.96;72.77;98403.50;4940622;28;42632;-77
2023/05/15 02:40:09;;;;;;;3.07;2.80;;;;;;;12.00;72.92;98412.06;4940539;28;39188;-78
2023/05/15 02:42:37;;;;;;;2.67;2.47;;;;;;;11.93;72.76;98410.84;4940680;28;41968;-77
2023/05/15 02:45:09;;;;;;;2.60;2.40;;;;;;;11.86;73.00;98410.47;4956606;28;43753;-78
2023/05/15 02:47:40;;;;;;;2.40;2.20;;;;;;;11.82;72.93;98409.84;4953905;28;43265;-77
2023/05/15 02:50:08;;;;;;;3.20;2.90;;;;;;;11.77;73.10;98413.78;4956636;28;39912;-78
2023/05/15 02:52:36;;;;;;;3.37;3.07;;;;;;;11.73;72.95;98414.94;4940572;28;42109;-77
2023/05/15 02:55:03;;;;;;;2.67;2.47;;;;;;;11.68;73.33;98417.09;4940231;28;41730;-77
2023/05/15 02:57:31;;;;;;;3.33;2.90;;;;;;;11.63;73.61;98409.47;4956451;28;43172;-77
2023/05/15 02:59:58;;;;;;;2.80;2.60;;;;;;;11.62;73.31;98406.94;4973203;28;41352;-77
2023/05/15 03:02:27;;;;;;;3.43;3.13;;;;;;;11.57;73.38;98404.63;4940536;28;41697;-77
2023/05/15 03:04:55;;;;;;;3.07;2.87;;;;;;;11.56;73.45;98408.22;4956023;28;41503;-77
2023/05/15 03:07:22;;;;;;;2.60;2.40;;;;;;;11.53;73.43;98400.50;4956773;28;43274;-77
2023/05/15 03:09:50;;;;;;;2.90;2.70;;;;;;;11.40;73.17;98387.28;4956219;28;39819;-77
2023/05/15 03:12:17;;;;;;;3.17;2.97;;;;;;;11.49;73.10;98407.00;4939647;28;42005;-78
2023/05/15 03:14:44;;;;;;;2.77;2.57;;;;;;;11.45;73.18;98400.22;4938735;28;41679;-77
2023/05/15 03:17:12;;;;;;;3.13;2.93;;;;;;;11.43;73.13;98396.81;4955219;28;42476;-78
2023/05/15 03:19:41;;;;;;;2.60;2.40;;;;;;;11.33;73.29;98387.84;4955007;28;40025;-78
2023/05/15 03:22:08;;;;;;;2.77;2.57;;;;;;;11.37;73.23;98403.44;4955052;28;42783;-78
2023/05/15 03:24:36;;;;;;;2.80;2.60;;;;;;;11.33;73.57;98399.31;4954719;28;42657;-77
2023/05/15 03:27:04;;;;;;;3.07;2.80;;;;;;;11.20;73.35;98387.91;4955146;28;43257;-77
2023/05/15 03:29:31;;;;;;;3.10;2.80;;;;;;;11.22;73.58;98386.00;4954612;28;40030;-78
2023/05/15 03:31:59;;;;;;;3.47;3.10;;;;;;;11.26;73.98;98395.41;4938854;28;41360;-77
2023/05/15 03:34:26;;;;;;;3.87;3.30;;;;;;;11.22;74.54;98380.69;4938322;28;41760;-77
2023/05/15 03:36:55;;;;;;;3.50;3.20;;;;;;;11.24;75.09;98388.53;4940040;28;41176;-77
2023/05/15 03:39:23;;;;;;;2.93;2.63;;;;;;;11.23;75.06;98382.38;4939648;28;38910;-77
2023/05/15 03:41:50;;;;;;;4.33;3.90;;;;;;;11.23;75.00;98389.50;4939760;28;40671;-77
2023/05/15 03:44:18;;;;;;;3.53;3.23;;;;;;;11.24;75.41;98388.53;4939450;28;42723;-77
2023/05/15 03:46:47;;;;;;;3.93;3.60;;;;;;;11.24;75.51;98396.50;4939624;28;42215;-77
2023/05/15 03:49:15;;;;;;;3.67;3.37;;;;;;;11.22;75.34;98393.94;4939521;28;39522;-77
2023/05/15 03:51:42;;;;;;;4.40;3.37;;;;;;;11.24;75.09;98396.50;4939844;28;41820;-77
2023/05/15 03:54:11;;;;;;;3.23;2.93;;;;;;;11.24;75.12;98396.50;4939559;28;41928;-77
2023/05/15 03:56:39;;;;;;;3.57;3.27;;;;;;;11.25;75.42;98392.88;4955516;28;43300;-77
2023/05/15 03:59:07;;;;;;;3.37;3.13;;;;;;;11.25;75.44;98395.53;4938586;28;39315;-77
2023/05/15 04:01:34;;;;;;;3.73;3.43;;;;;;;11.27;74.93;98393.59;4972871;28;41162;-77
2023/05/15 04:04:02;;;;;;;3.23;2.67;;;;;;;11.30;75.28;98401.31;4954287;28;41671;-78
2023/05/15 04:06:30;;;;;;;3.37;3.07;;;;;;;11.32;74.89;98394.13;4937809;28;42250;-78
2023/05/15 04:08:57;;;;;;;3.87;3.20;;;;;;;11.35;75.04;98397.41;4938224;28;38751;-78
2023/05/15 04:11:27;;;;;;;3.63;3.33;;;;;;;11.39;75.66;98395.34;4954262;28;40915;-77
2023/05/15 04:13:54;;;;;;;4.30;3.90;;;;;;;11.39;76.04;98380.28;4938145;28;42146;-77
2023/05/15 04:16:22;;;;;;;3.83;3.53;;;;;;;11.24;76.30;98351.44;4954238;28;41141;-77
2023/05/15 04:18:49;;;;;;;4.13;3.83;;;;;;;11.55;77.12;98395.94;4954130;28;38952;-77
2023/05/15 04:21:17;;;;;;;4.23;3.83;;;;;;;11.61;77.12;98384.88;4971421;28;41652;-77
2023/05/15 04:23:44;;;;;;;4.30;3.90;;;;;;;11.68;76.83;98388.75;4953932;28;42927;-78
2023/05/15 04:26:12;;;;;;;6.00;4.23;;;;;;;11.67;78.40;98368.50;4954306;28;43671;-77
2023/05/15 04:28:41;;;;;;;5.03;4.47;;;;;;;11.83;77.52;98385.00;4954189;28;40000;-78
2023/05/15 04:31:08;;;;;;;3.63;3.33;;;;;;;11.90;77.89;98379.22;4954218;28;41019;-77
2023/05/15 04:33:38;;;;;;;4.27;3.87;;;;;;;11.96;77.52;98384.91;4938150;28;43001;-77
2023/05/15 04:36:06;;;;;;;4.10;3.80;;;;;;;12.06;76.88;98390.38;4938788;28;42975;-77
2023/05/15 04:38:33;;;;;;;4.40;3.57;;;;;;;11.95;76.69;98350.53;4938771;28;42192;-77
2023/05/15 04:41:01;;;;;;;3.60;3.30;;;;;;;12.30;76.43;98388.50;4955936;28;42050;-77
2023/05/15 04:43:29;;;;;;;3.50;3.20;;;;;;;12.45;76.53;98387.31;4958131;28;43121;-77
2023/05/15 04:45:57;;;;;;;3.97;3.67;;;;;;;12.62;75.87;98393.09;4942548;28;42531;-78
2023/05/15 04:48:25;;;;;;;3.90;3.60;;;;;;;12.76;75.69;98384.91;4958440;28;38644;-77
2023/05/15 04:50:52;;;;;;;3.90;3.50;;;;;;;12.86;75.53;98378.72;4958340;28;42341;-77
2023/05/15 04:53:20;;;;;;;4.77;4.23;;;;;;;13.00;75.67;98376.78;4958423;28;42675;-78
2023/05/15 04:55:50;;;;;;;3.70;3.40;;;;;;;13.20;74.92;98390.22;4974749;28;42177;-78
2023/05/15 04:58:17;;;;;;;3.80;3.50;;;;;;;13.40;74.68;98387.75;4941308;28;39490;-77
2023/05/15 05:00:45;;;;;;;3.47;3.23;;;;;;;13.60;74.13;98392.28;4940848;28;41817;-77
2023/05/15 05:03:13;;;;;;;3.60;3.40;;;;;;;13.78;73.86;98398.75;4956637;28;42767;-78
2023/05/15 05:05:41;;;;;;;4.60;3.57;;;;;;;13.93;73.65;98397.50;4956647;28;43232;-78
2023/05/15 05:08:08;;;;;;;3.63;3.37;;;;;;;14.12;73.39;98386.13;4941474;28;40054;-78
2023/05/15 05:10:36;;;;;;;3.93;3.63;;;;;;;14.28;72.77;98396.34;4957029;28;41505;-77
2023/05/15 05:13:03;;;;;;;3.83;3.43;;;;;;;14.36;72.41;98381.38;4956784;28;41827;-77
2023/05/15 05:15:31;;;;;;;4.50;4.10;;;;;;;14.58;72.25;98393.75;4957020;28;42233;-77
2023/05/15 05:17:58;;;;;;;4.10;3.70;;;;;;;14.73;71.90;98395.06;4941105;28;39138;-77
2023/05/15 05:20:27;;;;;;;4.27;3.87;;;;;;;14.84;71.17;98388.81;4956446;28;41632;-77
2023/05/15 05:22:55;;;;;;;4.20;3.80;;;;;;;14.95;70.74;98396.75;4941404;28;42839;-78
2023/05/15 05:25:22;;;;;;;4.20;3.80;;;;;;;15.04;70.77;98395.91;4940161;28;42342;-78
2023/05/15 05:27:51;;;;;;;4.77;4.00;;;;;;;15.09;70.12;98400.81;4956762;28;39979;-77
2023/05/15 05:30:18;;;;;;;3.50;3.20;;;;;;;15.17;70.39;98398.34;4956902;28;41901;-78
2023/05/15 05:32:46;;;;;;;4.03;3.67;;;;;;;15.27;70.00;98399.22;4974131;28;43703;-77
2023/05/15 05:35:13;;;;;;;3.80;3.50;;;;;;;15.40;70.33;98405.16;4940599;28;41442;-78
2023/05/15 05:37:42;;;;;;;3.23;3.03;;;;;;;15.51;69.98;98395.34;4974850;28;40719;-77
2023/05/15 05:40:11;;;;;;;5.10;3.73;;;;;;;15.59;69.11;98403.50;4957419;28;41777;-78
2023/05/15 05:42:38;;;;;;;4.13;3.83;;;;;;;15.63;69.20;98399.59;4957462;28;43487;-78
2023/05/15 05:45:07;;;;;;;4.30;4.00;;;;;;;15.68;68.92;98400.88;4957451;28;42226;-78
2023/05/15 05:47:35;;;;;;;3.60;3.30;;;;;;;15.75;68.40;98403.81;4968379;28;41063;-81
2023/05/15 05:50:02;;;;;;;4.33;3.80;;;;;;;15.82;68.75;98404.97;4941243;28;40739;-81
2023/05/15 05:52:30;;;;;;;3.80;3.50;;;;;;;15.92;68.67;98399.63;4941016;28;43085;-80
2023/05/15 05:54:59;;;;;;;4.07;3.07;;;;;;;15.93;68.49;98390.63;4952412;28;41168;-79
2023/05/15 05:57:27;;;;;;;3.80;3.47;;;;;;;16.09;68.62;98410.44;4956363;28;40015;-78
2023/05/15 05:59:54;;;;;;;3.73;3.43;;;;;;;16.10;67.94;98380.06;4936456;28;41852;-80
2023/05/15 06:02:22;;;;;;;3.47;3.17;;;;;;;16.33;67.80;98409.13;4938001;28;42409;-82
2023/05/15 06:04:50;;;;;;;3.37;3.07;;;;;;;16.43;67.55;98400.16;4954464;28;41026;-81
2023/05/15 06:07:17;;;;;;;4.00;3.50;;;;;;;16.42;66.98;98390.44;4956163;28;40851;-78
2023/05/15 06:09:47;;;;;;;3.67;3.37;;;;;;;16.65;66.49;98404.34;4929652;28;40694;-80
2023/05/15 06:12:17;;;;;;;3.03;2.83;;;;;;;16.84;66.16;98409.63;4953063;28;43592;-80
2023/05/15 06:14:45;;;;;;;4.03;3.47;;;;;;;16.99;65.78;98409.16;4946072;28;42326;-80
2023/05/15 06:17:12;;;;;;;3.53;3.23;;;;;;;17.09;65.54;98401.91;4982456;28;40968;-82
2023/05/15 06:19:40;;;;;;;4.37;3.63;;;;;;;17.45;64.55;98430.47;4949221;28;40608;-79
2023/05/15 06:22:08;;;;;;;4.10;3.67;;;;;;;17.76;63.87;98420.31;4955823;28;41829;-81
2023/05/15 06:24:35;;;;;;;5.60;3.33;;;;;;;17.95;63.57;98424.66;4972989;28;42437;-80
2023/05/15 06:27:57;;;;;;;6.53;3.87;;;;;;;17.46;63.31;98341.13;4973896;28;40202;-83
2023/05/15 06:30:52;;;;;;;5.30;3.33;;;;;;;17.80;62.96;98413.63;4928220;28;42229;-81
2023/05/15 06:33:21;;;;;;;4.43;3.50;;;;;;;17.98;63.17;98420.84;4955992;28;42725;-83
2023/05/15 06:35:48;;;;;;;3.47;3.17;;;;;;;18.04;62.95;98415.72;4952863;28;41038;-80
2023/05/15 06:38:16;;;;;;;3.43;3.10;;;;;;;18.24;62.22;98427.97;4954884;28;39719;-80
2023/05/15 06:40:43;;;;;;;5.70;3.27;;;;;;;18.49;61.27;98420.97;4954671;28;41767;-80
2023/05/15 06:43:11;;;;;;;4.63;3.43;;;;;;;18.79;59.90;98438.44;4956981;28;41754;-78
2023/05/15 06:45:38;;;;;;;4.27;2.90;;;;;;;18.94;59.81;98436.88;4923114;28;42343;-80
2023/05/15 06:48:07;;;;;;;3.93;3.20;;;;;;;19.11;59.92;98436.97;4937218;28;39151;-78
2023/05/15 06:50:35;;;;;;;4.10;2.67;;;;;;;19.38;59.22;98439.47;4953601;28;42052;-80
2023/05/15 06:53:03;;;;;;;4.10;2.83;;;;;;;19.63;58.62;98438.56;4973692;28;42790;-79
2023/05/15 06:55:32;;;;;;;3.20;3.00;;;;;;;19.70;58.13;98428.00;4973022;28;43076;-82
2023/05/15 06:58:00;;;;;;;4.57;3.00;;;;;;;19.87;57.00;98439.66;4956506;28;39134;-82
2023/05/15 07:00:27;;;;;;;3.33;2.70;;;;;;;20.07;57.34;98441.84;4955818;28;41004;-81
2023/05/15 07:02:56;;;;;;;3.63;3.03;;;;;;;20.24;56.76;98441.88;4940365;28;41937;-78
2023/05/15 07:05:25;;;;;;;4.27;2.90;;;;;;;20.40;56.65;98441.91;4935579;28;41188;-81
2023/05/15 07:07:52;;;;;;;4.53;3.40;;;;;;;20.51;56.01;98443.44;4937071;28;40727;-78
2023/05/15 07:10:20;;;;;;;3.83;2.80;;;;;;;20.72;54.78;98441.06;4951296;28;41802;-80
2023/05/15 07:12:47;;;;;;;3.53;3.17;;;;;;;21.06;54.18;98459.66;4940170;28;42014;-80
2023/05/15 07:15:16;;;;;;;3.33;3.03;;;;;;;21.33;51.78;98461.16;4973360;28;42222;-82
2023/05/15 07:17:44;;;;;;;3.03;2.83;;;;;;;21.78;52.17;98466.66;4955917;28;39483;-81
2023/05/15 07:20:11;;;;;;;3.00;2.70;;;;;;;21.86;51.34;98461.25;4942477;28;42376;-82
2023/05/15 07:22:40;;;;;;;3.23;2.93;;;;;;;22.04;50.66;98470.94;4953310;28;43239;-83
2023/05/15 07:25:08;;;;;;;3.53;2.80;;;;;;;22.03;50.49;98459.31;4952566;28;42948;-82
2023/05/15 07:27:36;;;;;;;3.67;3.33;;;;;;;22.13;50.61;98453.72;4936674;28;40170;-89
2023/05/15 07:30:05;;;;;;;3.10;2.80;;;;;;;22.26;49.32;98471.97;4952560;28;42168;-81
2023/05/15 07:32:33;;;;;;;3.30;3.00;;;;;;;22.19;50.06;98458.38;4921128;28;43097;-85
2023/05/15 07:35:01;;;;;;;3.13;2.70;;;;;;;22.26;50.47;98459.31;4939989;28;42277;-85
2023/05/15 07:37:28;;;;;;;3.77;3.47;;;;;;;22.27;50.09;98461.00;4955966;28;40841;-82
2023/05/15 07:39:57;;;;;;;3.30;2.63;;;;;;;22.32;50.36;98447.84;4961642;28;41325;-86
2023/05/15 07:42:25;;;;;;;3.80;3.40;;;;;;;22.45;49.81;98445.38;4921117;28;41967;-87
2023/05/15 07:44:53;;;;;;;4.57;3.67;;;;;;;22.71;47.51;98477.38;4953120;28;40860;-84
2023/05/15 07:47:20;;;;;;;3.77;3.30;;;;;;;22.73;48.52;98474.50;4922404;28;38978;-83
2023/05/15 07:49:48;;;;;;;3.10;2.90;;;;;;;22.78;47.79;98466.69;4920965;28;41918;-84
2023/05/15 07:52:16;;;;;;;3.50;3.20;;;;;;;23.13;47.12;98463.31;4936914;28;41987;-83
2023/05/15 07:54:43;;;;;;;3.80;3.00;;;;;;;23.38;46.42;98455.78;4920744;28;41332;-87
2023/05/15 07:57:13;;;;;;;4.53;3.37;;;;;;;23.90;45.64;98474.59;4953115;28;41867;-83
2023/05/15 07:59:40;;;;;;;2.73;2.53;;;;;;;24.58;44.58;98465.16;4945830;28;41343;-86
2023/05/15 08:02:08;;;;;;;3.00;2.80;;;;;;;25.07;42.56;98468.91;4939408;28;42073;-85
2023/05/15 08:04:35;;;;;;;3.03;2.83;;;;;;;25.37;40.43;98475.75;4936457;28;41252;-83
2023/05/15 08:07:03;;;;;;;3.23;3.03;;;;;;;25.65;41.26;98473.03;4919854;28;38701;-84
2023/05/15 08:09:31;;;;;;;3.43;3.10;;;;;;;26.11;40.51;98493.06;4943069;28;42686;-83
2023/05/15 08:12:16;;;;;;;3.47;3.20;;;;;;;26.61;40.04;98488.19;4954490;28;43252;-83
2023/05/15 08:14:44;;;;;;;4.13;3.33;;;;;;;27.14;37.60;98485.50;4968831;28;42760;-83
2023/05/15 08:17:12;;;;;;;3.57;3.27;;;;;;;27.96;36.79;98503.97;4940965;28;39309;-85
2023/05/15 08:19:40;;;;;;;3.23;3.03;;;;;;;28.50;36.45;98498.06;4948248;28;41936;-84
2023/05/15 08:22:07;;;;;;;3.40;3.07;;;;;;;28.56;35.75;98458.22;4938780;28;42828;-86
2023/05/15 08:24:35;;;;;;;4.93;2.73;;;;;;;28.68;35.55;98453.72;4944147;28;41094;-83
2023/05/15 08:27:04;;;;;;;3.57;3.00;;;;;;;28.87;34.94;98509.16;4954924;28;38826;-85
2023/05/15 08:29:34;;;;;;;3.60;3.30;;;;;;;28.65;34.29;98484.13;4964071;28;41954;-83
2023/05/15 08:32:02;;;;;;;3.53;3.23;;;;;;;29.11;34.73;98499.31;4941665;28;42653;-85
2023/05/15 08:34:32;;;;;;;4.17;3.77;;;;;;;29.85;32.08;98512.84;4938254;28;41284;-85
2023/05/15 08:37:00;;;;;;;3.93;3.53;;;;;;;30.78;30.89;98517.16;4922708;28;38814;-89
2023/05/15 08:39:28;;;;;;;5.50;3.63;;;;;;;32.02;30.05;98518.78;4929872;28;42004;-83
2023/05/15 08:41:58;;;;;;;3.90;3.60;;;;;;;33.03;29.20;98504.28;4941486;28;41926;-84
2023/05/15 08:44:26;;;;;;;6.37;3.20;;;;;;;33.34;28.18;98516.63;4954229;28;41045;-88
2023/05/15 08:46:56;;;;;;;3.33;3.03;;;;;;;33.18;28.52;98520.16;4938837;28;40094;-87
2023/05/15 08:49:33;;;;;;;3.53;3.23;;;;;;;32.56;29.44;98511.09;4930727;28;41788;-92
2023/05/15 08:52:00;;;;;;;3.33;3.00;;;;;;;32.02;29.75;98480.44;4957957;28;43173;-87
2023/05/15 08:54:29;;;;;;;3.97;3.67;;;;;;;31.58;31.00;98493.69;4942536;28;40751;-84
2023/05/15 08:56:57;;;;;;;3.87;2.90;;;;;;;30.94;31.57;98484.47;4942658;28;40143;-87
2023/05/15 08:59:24;;;;;;;3.43;3.13;;;;;;;30.54;32.32;98495.19;4939081;28;40727;-86
2023/05/15 09:01:53;;;;;;;3.90;3.60;;;;;;;30.21;31.59;98483.88;4938974;28;42865;-82
2023/05/15 09:04:22;;;;;;;3.77;3.20;;;;;;;30.16;32.19;98490.03;4922816;28;41241;-81
2023/05/15 09:06:50;;;;;;;3.80;3.30;;;;;;;30.13;32.44;98482.31;4922798;28;40014;-80
2023/05/15 09:09:18;;;;;;;3.93;3.50;;;;;;;30.31;32.82;98484.97;4945255;28;40946;-85
2023/05/15 09:11:48;;;;;;;3.23;3.03;;;;;;;30.39;32.37;98485.75;4958078;28;43416;-82
2023/05/15 09:14:16;;;;;;;5.27;3.40;;;;;;;30.05;31.01;98474.41;4951374;28;42679;-87
2023/05/15 09:16:45;;;;;;;3.50;3.20;;;;;;;29.77;31.63;98465.94;4936738;28;39755;-85
2023/05/15 09:19:15;;;;;;;3.40;3.10;;;;;;;29.37;32.11;98428.13;4943300;28;41580;-80
2023/05/15 09:21:44;;;;;;;3.83;3.07;;;;;;;29.73;32.64;98467.44;4956458;28;43794;-80
2023/05/15 09:24:23;;;;;;;3.83;3.40;;;;;;;29.69;32.34;98468.94;4956191;28;43288;-82
2023/05/15 09:27:05;;;;;;;3.30;3.10;;;;;;;29.65;32.83;98463.97;4955886;28;39262;-82
2023/05/15 09:29:34;;;;;;;3.80;3.13;;;;;;;29.75;31.25;98462.59;4950461;28;41832;-85
2023/05/15 09:32:03;;;;;;;4.07;3.43;;;;;;;30.07;30.79;98471.44;4937018;28;42824;-87
2023/05/15 09:34:32;;;;;;;3.47;3.27;;;;;;;30.39;31.75;98469.34;4953878;28;42842;-79
2023/05/15 09:37:04;;;;;;;3.40;3.10;;;;;;;30.85;30.33;98485.88;4954563;28;41615;-81
2023/05/15 09:39:31;;;;;;;4.27;3.83;;;;;;;31.22;28.89;98491.19;4929647;28;40479;-81
2023/05/15 09:42:10;;;;;;;3.53;3.20;;;;;;;31.68;29.73;98474.78;4956221;28;41706;-83
2023/05/15 09:44:42;;;;;;;3.50;3.20;;;;;;;32.56;28.24;98491.91;4970753;28;43144;-85
2023/05/15 09:47:11;;;;;;;3.57;3.10;;;;;;;33.75;28.33;98482.38;4941201;28;39702;-83
2023/05/15 09:49:39;;;;;;;4.50;3.25;;;;;;;35.22;25.79;98494.97;4973531;28;41826;-84
2023/05/15 09:52:10;;;;;;;4.22;3.15;;;;;;;35.62;24.67;98501.88;4974658;28;43127;-81
2023/05/15 09:54:38;;;;;;;5.00;3.83;;;;;;;34.90;25.60;98491.41;4954163;28;42243;-83
2023/05/15 09:57:10;;;;;;;3.97;3.20;;;;;;;34.38;25.13;98494.69;4922012;28;39226;-83
2023/05/15 09:59:46;;;;;;;3.80;3.50;;;;;;;34.24;26.35;98471.44;4930836;28;41929;-80
2023/05/15 10:02:22;;;;;;;3.77;3.43;;;;;;;34.43;25.63;98481.00;4956882;28;44695;-82
2023/05/15 10:04:54;;;;;;;3.30;3.10;;;;;;;34.21;25.69;98467.28;4946248;28;42246;-84
2023/05/15 10:07:29;;;;;;;2.97;2.77;;;;;;;33.40;25.99;98446.13;4953218;28;40699;-83
2023/05/15 10:09:57;;;;;;;3.57;3.23;;;;;;;32.55;25.97;98473.78;4950487;28;41915;-83
2023/05/15 10:12:25;;;;;;;3.50;3.20;;;;;;;31.64;27.25;98454.44;4952995;28;42697;-85
2023/05/15 10:14:57;;;;;;;3.87;3.50;;;;;;;31.03;28.36;98455.69;4939792;28;41584;-79
2023/05/15 10:17:25;;;;;;;3.87;3.57;;;;;;;30.62;28.64;98463.97;4956691;28;38984;-82
2023/05/15 10:19:53;;;;;;;4.50;3.50;;;;;;;30.47;28.74;98449.88;4936761;28;41210;-82
2023/05/15 10:22:23;;;;;;;4.57;3.60;;;;;;;31.19;29.15;98432.31;4921390;28;42802;-84
2023/05/15 10:25:00;;;;;;;3.57;3.27;;;;;;;31.24;29.19;98435.16;4947699;28;42055;-79
2023/05/15 10:27:30;;;;;;;3.30;3.00;;;;;;;31.18;29.77;98436.09;4973542;28;41914;-84
2023/05/15 10:29:58;;;;;;;3.50;3.20;;;;;;;30.65;29.69;98437.00;4936623;28;41833;-81
2023/05/15 10:32:26;;;;;;;3.57;3.27;;;;;;;29.94;30.64;98434.19;4937110;28;41907;-82
2023/05/15 10:34:54;;;;;;;3.27;2.97;;;;;;;29.35;31.15;98435.72;4932056;28;41094;-81
2023/05/15 10:37:23;;;;;;;3.80;3.50;;;;;;;28.97;31.24;98422.25;4956229;28;38854;-78
2023/05/15 10:39:54;;;;;;;3.90;3.60;;;;;;;28.74;29.85;98441.09;4945493;28;41747;-78
2023/05/15 10:42:24;;;;;;;4.93;3.70;;;;;;;28.72;29.87;98430.41;4953584;28;43246;-81
2023/05/15 10:44:58;;;;;;;4.63;3.33;;;;;;;29.38;28.62;98424.38;4948223;28;41153;-84
2023/05/15 10:47:27;;;;;;;3.13;2.93;;;;;;;30.40;29.93;98421.81;4940720;28;40004;-81
2023/05/15 10:49:55;;;;;;;3.77;3.40;;;;;;;30.39;27.37;98442.00;4953060;28;42049;-81
2023/05/15 10:52:22;;;;;;;3.17;2.87;;;;;;;30.33;28.19;98432.84;4921143;28;41862;-77
2023/05/15 10:54:52;;;;;;;4.07;3.37;;;;;;;30.16;29.05;98438.16;4947879;28;41126;-80
2023/05/15 10:57:21;;;;;;;3.63;3.33;;;;;;;29.34;28.58;98441.38;4956296;28;39820;-79
2023/05/15 10:59:49;;;;;;;3.80;3.27;;;;;;;28.55;30.05;98391.16;4938250;28;40687;-79
2023/05/15 11:02:22;;;;;;;2.73;2.53;;;;;;;28.85;30.42;98391.31;4955637;28;41833;-81
2023/05/15 11:04:55;;;;;;;2.93;2.73;;;;;;;28.65;29.28;98443.25;4970561;28;42955;-84
2023/05/15 11:07:24;;;;;;;2.77;2.57;;;;;;;28.31;28.98;98438.28;4951888;28;39079;-81
2023/05/15 11:09:54;;;;;;;2.40;2.20;;;;;;;28.01;30.17;98429.81;4971242;28;41756;-80
2023/05/15 11:12:23;;;;;;;2.87;2.67;;;;;;;27.97;30.51;98431.28;4937302;28;41789;-85
2023/05/15 11:15:19;;;;;;;4.47;2.73;;;;;;;27.94;29.89;98431.75;4954092;28;40873;-80
2023/05/15 11:18:03;;;;;;;2.73;2.43;;;;;;;28.14;30.92;98400.63;4938383;28;40379;-83
2023/05/15 11:20:38;;;;;;;4.57;1.83;;;;;;;28.31;27.97;98428.22;4955919;28;42516;-84
2023/05/15 11:23:06;;;;;;;2.47;2.27;;;;;;;27.89;28.85;98413.34;4939644;28;42633;-81
2023/05/15 11:25:36;;;;;;;2.73;2.53;;;;;;;28.27;29.92;98398.91;4955382;28;42358;-81
2023/05/15 11:28:06;;;;;;;3.43;2.60;;;;;;;28.73;29.24;98387.63;4937539;28;38979;-83
2023/05/15 11:30:38;;;;;;;2.67;2.43;;;;;;;29.22;31.81;98364.94;4947843;28;40805;-79
2023/05/15 11:33:08;;;;;;;3.40;3.10;;;;;;;29.11;29.57;98368.41;4955090;28;42112;-84
2023/05/15 11:35:40;;;;;;;2.90;2.67;;;;;;;29.77;27.59;98386.75;4954912;28;42652;-80
2023/05/15 11:38:12;;;;;;;5.23;3.07;;;;;;;30.18;27.76;98407.84;4952991;28;40629;-82
2023/05/15 11:40:51;;;;;;;2.63;2.40;;;;;;;30.04;29.17;98400.94;4949814;28;42067;-82
2023/05/15 11:43:20;;;;;;;3.20;2.80;;;;;;;29.79;28.59;98398.28;4950192;28;43321;-80
2023/05/15 11:45:51;;;;;;;4.73;3.70;;;;;;;29.63;28.38;98400.56;4935484;28;43034;-84
2023/05/15 11:48:20;;;;;;;5.87;3.57;;;;;;;29.30;29.91;98379.09;4952840;28;40562;-80